Time;durP1;ratioP1;P1;durP2;ratioP2;P2;SDS_P1;SDS_P2;PMS_P1;PMS_P2;Temp;Humidity;BMP_temperature;BMP_pressure;BME280_temperature;BME280_humidity;BME280_pressure;Samples;Min_cycle;Max_cycle;Signal;HPM_P1;HPM_P2
2023/08/04 00:01:19;;;;;;;;;;;;;;;21.79;57.01;100902.91;5063662;28;20396;-60
2023/08/04 00:03:44;;;;;;;;;;;;;;;21.77;56.93;100900.41;5063142;28;20377;-61
2023/08/04 00:06:09;;;;;;;;;;;;;;;21.78;57.09;100896.66;5062773;28;19964;-58
2023/08/04 00:08:34;;;;;;;;;;;;;;;21.78;56.79;100895.84;5063854;28;20398;-61
2023/08/04 00:10:59;;;;;;;;;;;;;;;21.77;56.74;100888.75;5063869;28;19932;-60
2023/08/04 00:13:25;;;;;;;;;;;;;;;21.76;56.82;100887.91;5065757;28;19931;-61
2023/08/04 00:15:50;;;;;;;;;;;;;;;21.76;56.70;100887.09;5062939;28;19948;-61
2023/08/04 00:18:15;;;;;;;;;;;;;;;21.74;56.99;100884.53;5063513;28;19917;-60
2023/08/04 00:20:40;;;;;;;;;;;;;;;21.75;56.81;100890.78;5063076;28;20635;-61
2023/08/04 00:23:06;;;;;;;;;;;;;;;21.75;56.78;100896.19;5064490;28;19959;-61
2023/08/04 00:25:31;;;;;;;;;;;;;;;21.74;56.94;100889.94;5063566;28;19921;-60
2023/08/04 00:27:56;;;;;;;;;;;;;;;21.73;56.72;100899.09;5070107;28;19917;-61
2023/08/04 00:30:21;;;;;;;;;;;;;;;21.72;56.83;100900.16;5062679;28;19927;-61
2023/08/04 00:32:47;;;;;;;;;;;;;;;21.70;56.73;100903.00;5063626;28;19944;-61
2023/08/04 00:35:13;;;;;;;;;;;;;;;21.70;56.99;100888.66;5063108;28;20350;-59
2023/08/04 00:37:38;;;;;;;;;;;;;;;21.70;56.65;100894.91;5063307;28;19917;-61
2023/08/04 00:40:03;;;;;;;;;;;;;;;21.70;56.89;100892.19;5063566;28;19921;-61
2023/08/04 00:42:28;;;;;;;;;;;;;;;21.69;56.78;100901.34;5063545;28;19925;-61
2023/08/04 00:44:54;;;;;;;;;;;;;;;21.68;56.53;100899.66;5063112;28;20365;-61
2023/08/04 00:47:19;;;;;;;;;;;;;;;21.69;56.83;100900.50;5063308;28;20000;-61
2023/08/04 00:49:45;;;;;;;;;;;;;;;21.68;56.75;100915.06;5093628;28;20000;-61
2023/08/04 00:52:10;;;;;;;;;;;;;;;21.68;56.83;100912.38;5065787;28;19923;-59
2023/08/04 00:54:36;;;;;;;;;;;;;;;21.66;56.79;100911.69;5094758;28;19921;-61
2023/08/04 00:57:01;;;;;;;;;;;;;;;21.67;56.93;100913.41;5063292;28;19941;-61
2023/08/04 00:59:26;;;;;;;;;;;;;;;21.66;56.91;100917.97;5078426;28;19928;-61
2023/08/04 01:01:51;;;;;;;;;;;;;;;21.64;56.65;100919.19;5062833;28;19924;-61
2023/08/04 01:04:19;;;;;;;;;;;;;;;21.64;56.79;100913.75;5062683;28;19921;-60
2023/08/04 01:06:52;;;;;;;;;;;;;;;21.63;56.80;100921.03;5063411;28;19917;-61
2023/08/04 01:09:22;;;;;;;;;;;;;;;21.63;56.91;100931.03;5061613;28;19971;-60
2023/08/04 01:11:51;;;;;;;;;;;;;;;21.62;56.70;100923.91;5061909;28;19923;-60
2023/08/04 01:14:16;;;;;;;;;;;;;;;21.61;56.75;100933.06;5063293;28;20297;-61
2023/08/04 01:16:41;;;;;;;;;;;;;;;21.61;56.71;100942.03;5095776;28;19917;-60
2023/08/04 01:19:07;;;;;;;;;;;;;;;21.60;56.68;100947.63;5064333;28;19925;-61
2023/08/04 01:21:38;;;;;;;;;;;;;;;21.59;56.43;100941.38;5068348;28;19943;-60
2023/08/04 01:24:03;;;;;;;;;;;;;;;21.59;56.77;100938.69;5069172;28;19917;-61
2023/08/04 01:26:28;;;;;;;;;;;;;;;21.58;56.76;100938.84;5066737;28;19984;-61
2023/08/04 01:28:54;;;;;;;;;;;;;;;21.57;56.36;100935.31;5066552;28;19921;-61
2023/08/04 01:31:19;;;;;;;;;;;;;;;21.57;56.60;100942.59;5067197;28;19927;-62
2023/08/04 01:33:44;;;;;;;;;;;;;;;21.58;56.52;100944.25;5067053;28;19917;-61
2023/08/04 01:36:09;;;;;;;;;;;;;;;21.56;56.52;100943.63;5066359;28;19928;-59
2023/08/04 01:38:34;;;;;;;;;;;;;;;21.56;56.64;100951.72;5099895;28;19917;-60
2023/08/04 01:41:00;;;;;;;;;;;;;;;21.55;56.44;100950.06;5066308;28;19924;-61
2023/08/04 01:43:25;;;;;;;;;;;;;;;21.55;56.63;100950.06;5066407;28;19925;-61
2023/08/04 01:45:50;;;;;;;;;;;;;;;21.54;56.68;100951.94;5068626;28;19970;-61
2023/08/04 01:48:16;;;;;;;;;;;;;;;21.53;56.44;100954.78;5066338;28;19916;-60
2023/08/04 01:50:42;;;;;;;;;;;;;;;21.53;56.69;100958.34;5066464;28;19982;-61
2023/08/04 01:53:08;;;;;;;;;;;;;;;21.53;56.45;100949.38;5066591;28;19916;-62
2023/08/04 01:55:33;;;;;;;;;;;;;;;21.52;56.40;100950.41;5066746;28;19924;-61
2023/08/04 01:57:58;;;;;;;;;;;;;;;21.52;56.31;100945.00;5067070;28;19916;-60
2023/08/04 02:00:23;;;;;;;;;;;;;;;21.51;56.42;100955.00;5065800;28;19927;-60
2023/08/04 02:02:48;;;;;;;;;;;;;;;21.49;56.50;100948.91;5066022;28;19924;-61
2023/08/04 02:05:14;;;;;;;;;;;;;;;21.49;56.23;100953.47;5065732;28;19974;-61
2023/08/04 02:07:39;;;;;;;;;;;;;;;21.50;56.54;100963.31;5066079;28;20554;-61
2023/08/04 02:10:05;;;;;;;;;;;;;;;21.48;56.51;100955.34;5066468;28;19916;-61
2023/08/04 02:12:30;;;;;;;;;;;;;;;21.48;56.63;100957.22;5064336;28;19921;-61
2023/08/04 02:14:55;;;;;;;;;;;;;;;21.30;56.60;100939.44;5065963;28;19921;-53
2023/08/04 02:17:21;;;;;;;;;;;;;;;21.46;56.63;100969.06;5065747;28;19920;-59
2023/08/04 02:19:46;;;;;;;;;;;;;;;21.45;56.27;100964.69;5065776;28;19921;-60
2023/08/04 02:22:11;;;;;;;;;;;;;;;21.45;56.54;100971.94;5065849;28;19921;-62
2023/08/04 02:24:36;;;;;;;;;;;;;;;21.45;56.55;100966.53;5066081;28;19917;-61
2023/08/04 02:27:02;;;;;;;;;;;;;;;21.44;56.35;100981.09;5065609;28;20348;-61
2023/08/04 02:29:27;;;;;;;;;;;;;;;21.10;56.64;100927.47;5065060;28;19913;-61
2023/08/04 02:31:52;;;;;;;;;;;;;;;21.43;56.55;100982.97;5065477;28;19921;-61
2023/08/04 02:34:17;;;;;;;;;;;;;;;21.43;56.37;100988.38;5065622;28;19943;-61
2023/08/04 02:36:42;;;;;;;;;;;;;;;21.42;56.26;100983.16;5063829;28;19928;-61
2023/08/04 02:39:08;;;;;;;;;;;;;;;21.43;56.55;100990.25;5065677;28;19920;-62
2023/08/04 02:41:33;;;;;;;;;;;;;;;21.43;56.63;100990.25;5065224;28;20530;-60
2023/08/04 02:44:00;;;;;;;;;;;;;;;21.42;56.29;100985.84;5067737;28;19952;-61
2023/08/04 02:46:25;;;;;;;;;;;;;;;21.42;56.43;100991.25;5065437;28;19917;-61
2023/08/04 02:48:50;;;;;;;;;;;;;;;21.40;56.43;100988.72;5068172;28;19939;-61
2023/08/04 02:51:16;;;;;;;;;;;;;;;21.41;56.29;101000.41;5063940;28;19917;-61
2023/08/04 02:53:45;;;;;;;;;;;;;;;21.40;56.41;100996.00;5067222;28;20003;-60
2023/08/04 02:56:12;;;;;;;;;;;;;;;21.39;56.33;101003.28;5063389;28;20560;-61
2023/08/04 02:58:37;;;;;;;;;;;;;;;21.39;56.42;100994.31;5064443;28;19927;-60
2023/08/04 03:01:02;;;;;;;;;;;;;;;21.39;56.46;100999.75;5065040;28;19925;-61
2023/08/04 03:03:28;;;;;;;;;;;;;;;21.39;56.41;100994.31;5065180;28;19923;-61
2023/08/04 03:05:55;;;;;;;;;;;;;;;21.38;56.19;100998.06;5064679;28;19923;-62
2023/08/04 03:08:21;;;;;;;;;;;;;;;21.36;56.31;101000.09;5064292;28;19942;-62
2023/08/04 03:10:46;;;;;;;;;;;;;;;21.36;56.54;100998.22;5064890;28;19944;-61
2023/08/04 03:13:11;;;;;;;;;;;;;;;21.36;56.48;101009.03;5064624;28;20487;-62
2023/08/04 03:15:37;;;;;;;;;;;;;;;21.36;56.40;101005.50;5064097;28;19919;-61
2023/08/04 03:18:02;;;;;;;;;;;;;;;21.36;56.44;101013.63;5064549;28;19948;-61
2023/08/04 03:20:28;;;;;;;;;;;;;;;21.35;56.37;101010.06;5064101;28;19959;-62
2023/08/04 03:22:53;;;;;;;;;;;;;;;21.34;56.48;101008.41;5063769;28;19920;-61
2023/08/04 03:25:19;;;;;;;;;;;;;;;21.33;56.14;101011.31;5065037;28;20003;-61
2023/08/04 03:27:44;;;;;;;;;;;;;;;21.34;56.32;101007.56;5064585;28;19917;-61
2023/08/04 03:30:09;;;;;;;;;;;;;;;21.33;56.45;101012.13;5063706;28;19996;-61
2023/08/04 03:32:34;;;;;;;;;;;;;;;21.33;56.46;101009.44;5064487;28;19923;-61
2023/08/04 03:35:00;;;;;;;;;;;;;;;21.33;56.46;101017.53;5064135;28;19920;-61
2023/08/04 03:37:25;;;;;;;;;;;;;;;21.33;56.36;101016.72;5060987;28;19921;-62
2023/08/04 03:39:50;;;;;;;;;;;;;;;21.31;56.39;101014.13;5064322;28;19929;-62
2023/08/04 03:42:15;;;;;;;;;;;;;;;21.31;56.37;101016.84;5063338;28;19933;-59
2023/08/04 03:44:40;;;;;;;;;;;;;;;21.31;56.37;101016.84;5064119;28;19923;-60
2023/08/04 03:47:06;;;;;;;;;;;;;;;21.30;56.53;101020.56;5064998;28;19917;-62
2023/08/04 03:49:31;;;;;;;;;;;;;;;21.31;56.35;101024.13;5063731;28;19923;-62
2023/08/04 03:51:56;;;;;;;;;;;;;;;21.30;56.15;101023.28;5064280;28;19917;-58
2023/08/04 03:54:21;;;;;;;;;;;;;;;21.30;56.25;101030.56;5064005;28;20000;-61
2023/08/04 03:56:46;;;;;;;;;;;;;;;21.29;56.28;101026.19;5063989;28;19959;-62
2023/08/04 03:59:12;;;;;;;;;;;;;;;21.29;56.21;101035.13;5063442;28;19917;-61
2023/08/04 04:01:38;;;;;;;;;;;;;;;21.29;56.55;101028.88;5063876;28;19928;-61
2023/08/04 04:04:03;;;;;;;;;;;;;;;21.28;56.25;101036.16;5094681;28;19917;-58
2023/08/04 04:06:28;;;;;;;;;;;;;;;21.29;56.38;101045.09;5077781;28;21203;-57
2023/08/04 04:08:54;;;;;;;;;;;;;;;21.28;56.30;101043.41;5062284;28;19927;-60
2023/08/04 04:11:19;;;;;;;;;;;;;;;21.28;56.56;101043.41;5063256;28;19985;-60
2023/08/04 04:13:44;;;;;;;;;;;;;;;21.27;56.61;101047.97;5062358;28;19917;-61
2023/08/04 04:16:09;;;;;;;;;;;;;;;21.28;56.47;101046.09;5062700;28;19960;-61
2023/08/04 04:18:35;;;;;;;;;;;;;;;21.28;56.46;101049.69;5063623;28;20012;-61
2023/08/04 04:21:00;;;;;;;;;;;;;;;21.27;56.40;101056.09;5064172;28;19931;-61
2023/08/04 04:23:25;;;;;;;;;;;;;;;21.27;56.46;101056.09;5063588;28;19920;-61
2023/08/04 04:25:50;;;;;;;;;;;;;;;21.28;56.84;101063.19;5063384;28;20389;-62
2023/08/04 04:28:15;;;;;;;;;;;;;;;21.29;56.48;101074.84;5063693;28;19917;-62
2023/08/04 04:30:41;;;;;;;;;;;;;;;21.27;56.74;101072.31;5063803;28;19916;-61
2023/08/04 04:33:06;;;;;;;;;;;;;;;21.27;56.50;101074.19;5063327;28;19943;-61
2023/08/04 04:35:31;;;;;;;;;;;;;;;21.27;56.88;101066.06;5062889;28;19925;-62
2023/08/04 04:37:56;;;;;;;;;;;;;;;21.27;56.78;101080.41;5063163;28;19917;-61
2023/08/04 04:40:21;;;;;;;;;;;;;;;21.27;57.24;101080.41;5063110;28;20114;-60
2023/08/04 04:42:47;;;;;;;;;;;;;;;21.28;56.93;101079.44;5065766;28;20007;-59
2023/08/04 04:45:12;;;;;;;;;;;;;;;21.29;57.08;101074.84;5064297;28;19917;-61
2023/08/04 04:47:37;;;;;;;;;;;;;;;21.29;57.44;101074.84;5064862;28;19939;-61
2023/08/04 04:50:02;;;;;;;;;;;;;;;21.30;57.30;101073.81;5062642;28;19928;-62
2023/08/04 04:52:35;;;;;;;;;;;;;;;21.31;57.29;101078.22;5063531;28;19916;-61
2023/08/04 04:55:01;;;;;;;;;;;;;;;21.30;57.28;101082.78;5066444;28;19928;-61
2023/08/04 04:57:26;;;;;;;;;;;;;;;21.31;57.33;101075.50;5066907;28;19917;-61
2023/08/04 04:59:52;;;;;;;;;;;;;;;21.31;57.65;101073.63;5066579;28;20377;-57
2023/08/04 05:02:17;;;;;;;;;;;;;;;21.30;57.53;101082.78;5066789;28;19917;-62
2023/08/04 05:04:43;;;;;;;;;;;;;;;21.31;57.33;101079.03;5098158;28;19939;-62
2023/08/04 05:07:08;;;;;;;;;;;;;;;21.32;57.53;101082.63;5063604;28;19924;-62
2023/08/04 05:09:33;;;;;;;;;;;;;;;21.31;57.53;101076.34;5067668;28;19971;-62
2023/08/04 05:11:58;;;;;;;;;;;;;;;21.31;57.57;101075.50;5068057;28;19947;-59
2023/08/04 05:14:24;;;;;;;;;;;;;;;21.31;57.74;101076.34;5067199;28;19964;-61
2023/08/04 05:16:49;;;;;;;;;;;;;;;21.31;57.82;101081.75;5066698;28;20730;-61
2023/08/04 05:19:14;;;;;;;;;;;;;;;21.32;57.85;101082.63;5066278;28;19921;-60
2023/08/04 05:21:39;;;;;;;;;;;;;;;21.32;57.88;101090.72;5066643;28;19921;-60
2023/08/04 05:24:04;;;;;;;;;;;;;;;21.33;57.72;101090.56;5066599;28;19923;-61
2023/08/04 05:26:30;;;;;;;;;;;;;;;21.32;57.81;101086.16;5067114;28;20501;-62
2023/08/04 05:28:55;;;;;;;;;;;;;;;21.33;57.79;101095.97;5066908;28;19966;-61
2023/08/04 05:31:20;;;;;;;;;;;;;;;21.33;57.76;101098.69;5066247;28;19982;-61
2023/08/04 05:33:45;;;;;;;;;;;;;;;21.34;57.96;101096.81;5066541;28;19935;-61
2023/08/04 05:36:12;;;;;;;;;;;;;;;21.34;57.85;101099.53;5066639;28;20003;-62
2023/08/04 05:38:37;;;;;;;;;;;;;;;21.34;57.92;101099.53;5066200;28;19913;-60
2023/08/04 05:41:02;;;;;;;;;;;;;;;21.35;57.94;101106.59;5066840;28;19923;-62
2023/08/04 05:43:28;;;;;;;;;;;;;;;21.34;57.80;101113.88;5066543;28;20012;-60
2023/08/04 05:45:54;;;;;;;;;;;;;;;21.35;57.71;101115.56;5067394;28;19921;-62
2023/08/04 05:48:19;;;;;;;;;;;;;;;21.34;57.88;101111.19;5066125;28;20235;-61
2023/08/04 05:50:44;;;;;;;;;;;;;;;21.34;57.92;101119.28;5067686;28;19920;-62
2023/08/04 05:53:09;;;;;;;;;;;;;;;21.35;57.92;101122.84;5099961;28;19921;-61
2023/08/04 05:55:36;;;;;;;;;;;;;;;21.35;58.04;101126.38;5065867;28;20051;-59
2023/08/04 05:58:01;;;;;;;;;;;;;;;21.35;57.92;101123.66;5084476;28;20258;-62
2023/08/04 06:00:26;;;;;;;;;;;;;;;21.35;57.89;101126.38;5065242;28;19951;-60
2023/08/04 06:02:51;;;;;;;;;;;;;;;21.36;57.84;101130.75;5065756;28;19963;-62
2023/08/04 06:05:17;;;;;;;;;;;;;;;21.36;57.98;101132.63;5063932;28;19929;-61
2023/08/04 06:07:47;;;;;;;;;;;;;;;21.36;57.83;101147.00;5065780;28;19970;-62
2023/08/04 06:10:13;;;;;;;;;;;;;;;21.36;57.81;101141.56;5066078;28;19923;-62
2023/08/04 06:12:38;;;;;;;;;;;;;;;21.36;57.77;101144.28;5068667;28;20304;-62
2023/08/04 06:15:03;;;;;;;;;;;;;;;21.37;57.71;101153.25;5067465;28;19921;-62
2023/08/04 06:17:29;;;;;;;;;;;;;;;21.36;57.77;101149.69;5064984;28;19917;-61
2023/08/04 06:19:54;;;;;;;;;;;;;;;21.37;57.62;101158.69;5066172;28;19927;-61
2023/08/04 06:22:19;;;;;;;;;;;;;;;21.36;57.58;101155.09;5065569;28;19916;-61
2023/08/04 06:24:44;;;;;;;;;;;;;;;21.36;57.64;101162.38;5097938;28;19947;-61
2023/08/04 06:27:09;;;;;;;;;;;;;;;21.36;57.56;101160.50;5065982;28;19921;-62
2023/08/04 06:29:35;;;;;;;;;;;;;;;21.36;57.65;101162.38;5065348;28;20063;-62
2023/08/04 06:32:00;;;;;;;;;;;;;;;21.36;57.39;101174.03;5069328;28;19925;-62
2023/08/04 06:34:25;;;;;;;;;;;;;;;21.36;57.26;101168.63;5066786;28;19959;-61
2023/08/04 06:36:50;;;;;;;;;;;;;;;21.37;57.35;101166.78;5070760;28;20358;-61
2023/08/04 06:39:16;;;;;;;;;;;;;;;21.37;57.41;101174.91;5064907;28;20431;-62
2023/08/04 06:41:41;;;;;;;;;;;;;;;21.37;57.51;101170.34;5066328;28;19920;-61
2023/08/04 06:44:06;;;;;;;;;;;;;;;21.37;57.36;101173.03;5066040;28;19916;-62
2023/08/04 06:46:32;;;;;;;;;;;;;;;21.38;57.55;101173.88;5065889;28;19917;-62
2023/08/04 06:48:57;;;;;;;;;;;;;;;21.38;57.41;101174.72;5096040;28;19912;-62
2023/08/04 06:51:22;;;;;;;;;;;;;;;21.39;57.66;101175.56;5065295;28;20373;-61
2023/08/04 06:53:48;;;;;;;;;;;;;;;21.39;57.73;101176.38;5065661;28;19951;-62
2023/08/04 06:56:13;;;;;;;;;;;;;;;21.39;57.66;101184.50;5065564;28;19920;-61
2023/08/04 06:58:38;;;;;;;;;;;;;;;21.39;57.62;101184.50;5065036;28;19917;-61
2023/08/04 07:01:04;;;;;;;;;;;;;;;21.40;57.63;101182.63;5064949;28;19917;-62
2023/08/04 07:03:29;;;;;;;;;;;;;;;21.41;57.69;101195.16;5065188;28;19920;-61
2023/08/04 07:05:54;;;;;;;;;;;;;;;21.41;57.59;101193.31;5066246;28;19916;-61
2023/08/04 07:08:19;;;;;;;;;;;;;;;21.40;57.69;101188.88;5064291;28;19917;-61
2023/08/04 07:10:45;;;;;;;;;;;;;;;21.42;57.48;101191.44;5066300;28;19920;-61
2023/08/04 07:13:10;;;;;;;;;;;;;;;21.43;57.63;101201.22;5064361;28;20480;-59
2023/08/04 07:15:35;;;;;;;;;;;;;;;21.43;57.75;101204.78;5063596;28;19921;-61
2023/08/04 07:18:00;;;;;;;;;;;;;;;21.44;57.70;101203.75;5064483;28;19948;-62
2023/08/04 07:20:27;;;;;;;;;;;;;;;21.45;57.62;101202.75;5063842;28;19928;-61
2023/08/04 07:22:52;;;;;;;;;;;;;;;21.45;57.46;101208.16;5064962;28;19951;-62
2023/08/04 07:25:17;;;;;;;;;;;;;;;21.46;57.29;101206.28;5064085;28;19917;-62
2023/08/04 07:27:43;;;;;;;;;;;;;;;21.46;57.49;101204.44;5064290;28;19917;-62
2023/08/04 07:30:08;;;;;;;;;;;;;;;21.46;57.23;101209.84;5064565;28;19924;-62
2023/08/04 07:32:33;;;;;;;;;;;;;;;21.48;57.15;101209.66;5063801;28;19916;-60
2023/08/04 07:34:58;;;;;;;;;;;;;;;21.49;57.53;101211.31;5064437;28;19924;-62
2023/08/04 07:37:24;;;;;;;;;;;;;;;21.50;57.22;101204.06;5064271;28;19924;-62
2023/08/04 07:39:49;;;;;;;;;;;;;;;21.50;57.18;101209.50;5064738;28;19917;-61
2023/08/04 07:42:15;;;;;;;;;;;;;;;21.52;57.07;101218.25;5065820;28;19921;-60
2023/08/04 07:44:40;;;;;;;;;;;;;;;21.52;57.39;101212.84;5051107;28;19931;-61
2023/08/04 07:47:05;;;;;;;;;;;;;;;21.52;57.36;101212.84;5060582;28;19921;-61
2023/08/04 07:49:30;;;;;;;;;;;;;;;21.52;57.42;101215.53;5063426;28;19925;-59
2023/08/04 07:51:56;;;;;;;;;;;;;;;21.52;57.34;101215.53;5063686;28;19917;-61
2023/08/04 07:54:21;;;;;;;;;;;;;;;21.51;57.19;101222.81;5065924;28;19977;-60
2023/08/04 07:56:46;;;;;;;;;;;;;;;21.52;57.16;101221.78;5062780;28;19980;-60
2023/08/04 07:59:11;;;;;;;;;;;;;;;21.53;57.41;101217.22;5061025;28;19923;-60
2023/08/04 08:01:36;;;;;;;;;;;;;;;21.53;57.15;101219.94;5062149;28;19920;-61
2023/08/04 08:04:02;;;;;;;;;;;;;;;21.52;57.33;101227.22;5065513;28;19923;-60
2023/08/04 08:06:27;;;;;;;;;;;;;;;21.53;57.27;101222.63;5062704;28;19961;-60
2023/08/04 08:08:52;;;;;;;;;;;;;;;21.53;57.47;101226.19;5062543;28;19972;-59
2023/08/04 08:11:18;;;;;;;;;;;;;;;21.54;57.37;101229.75;5062972;28;19941;-60
2023/08/04 08:13:43;;;;;;;;;;;;;;;21.54;57.70;101227.06;5062614;28;19917;-62
2023/08/04 08:16:09;;;;;;;;;;;;;;;21.54;57.84;101240.56;5064251;28;20286;-62
2023/08/04 08:18:34;;;;;;;;;;;;;;;21.55;57.65;101239.53;5062152;28;19997;-61
2023/08/04 08:21:00;;;;;;;;;;;;;;;21.54;57.81;101249.53;5059189;28;19924;-61
2023/08/04 08:23:25;;;;;;;;;;;;;;;21.54;57.76;101249.53;5092583;28;20409;-61
2023/08/04 08:25:50;;;;;;;;;;;;;;;21.54;57.81;101248.69;5061810;28;20370;-60
2023/08/04 08:28:15;;;;;;;;;;;;;;;21.55;57.90;101247.66;5063218;28;20266;-60
2023/08/04 08:30:40;;;;;;;;;;;;;;;21.56;57.97;101252.03;5060685;28;20723;-59
2023/08/04 08:33:06;;;;;;;;;;;;;;;21.56;58.22;101257.47;5062758;28;20500;-61
2023/08/04 08:35:31;;;;;;;;;;;;;;;21.56;58.09;101260.16;5061776;28;19927;-61
2023/08/04 08:37:56;;;;;;;;;;;;;;;21.57;58.35;101262.69;5061601;28;19952;-61
2023/08/04 08:40:23;;;;;;;;;;;;;;;21.58;58.49;101266.22;5062301;28;19920;-58
2023/08/04 08:42:48;;;;;;;;;;;;;;;21.58;58.21;101264.38;5061700;28;20138;-60
2023/08/04 08:45:13;;;;;;;;;;;;;;;21.58;58.19;101269.81;5063750;28;20381;-61
2023/08/04 08:47:38;;;;;;;;;;;;;;;21.59;58.63;101268.78;5062346;28;20285;-59
2023/08/04 08:50:04;;;;;;;;;;;;;;;21.60;58.41;101272.31;5061879;28;20274;-61
2023/08/04 08:52:31;;;;;;;;;;;;;;;21.61;58.34;101274.00;5061851;28;20374;-60
2023/08/04 08:54:57;;;;;;;;;;;;;;;21.61;58.55;101279.41;5057752;28;20010;-61
2023/08/04 08:57:22;;;;;;;;;;;;;;;21.61;58.48;101282.13;5095202;28;20004;-61
2023/08/04 08:59:48;;;;;;;;;;;;;;;21.61;58.57;101276.69;5090100;28;19925;-61
2023/08/04 09:02:13;;;;;;;;;;;;;;;21.61;58.49;101269.44;5061469;28;20340;-59
2023/08/04 09:04:38;;;;;;;;;;;;;;;21.63;58.68;101275.50;5089678;28;19921;-61
2023/08/04 09:07:04;;;;;;;;;;;;;;;21.64;58.45;101271.78;5096077;28;19946;-60
2023/08/04 09:09:29;;;;;;;;;;;;;;;21.64;58.64;101279.06;5060124;28;19917;-58
2023/08/04 09:11:56;;;;;;;;;;;;;;;21.64;58.35;101279.91;5059458;28;19916;-57
2023/08/04 09:14:21;;;;;;;;;;;;;;;21.65;58.52;101278.88;5058359;28;19924;-58
2023/08/04 09:16:47;;;;;;;;;;;;;;;21.67;58.49;101279.56;5059092;28;19927;-60
2023/08/04 09:19:12;;;;;;;;;;;;;;;21.68;58.50;101272.28;5088040;28;19929;-61
2023/08/04 09:21:37;;;;;;;;;;;;;;;21.69;58.56;101277.50;5059414;28;19994;-61
2023/08/04 09:24:03;;;;;;;;;;;;;;;21.71;58.68;101282.75;5060454;28;19921;-61
2023/08/04 09:26:44;;;;;;;;;;;;;;;21.70;58.49;101292.72;5058785;28;19921;-59
2023/08/04 09:29:10;;;;;;;;;;;;;;;21.70;58.44;101287.28;5059199;28;19952;-61
2023/08/04 09:31:36;;;;;;;;;;;;;;;21.72;58.49;101287.13;5059523;28;19924;-61
2023/08/04 09:34:03;;;;;;;;;;;;;;;21.73;58.65;101282.56;5062530;28;19925;-59
2023/08/04 09:36:28;;;;;;;;;;;;;;;21.72;58.41;101292.56;5058709;28;20277;-60
2023/08/04 09:38:53;;;;;;;;;;;;;;;21.72;58.53;101295.25;5060337;28;19988;-61
2023/08/04 09:41:18;;;;;;;;;;;;;;;21.71;58.22;101301.69;5061212;28;19924;-61
2023/08/04 09:43:44;;;;;;;;;;;;;;;21.71;58.40;101309.81;5064355;28;19950;-60
2023/08/04 09:46:09;;;;;;;;;;;;;;;21.70;58.36;101318.94;5095444;28;20078;-60
2023/08/04 09:48:34;;;;;;;;;;;;;;;21.69;58.36;101314.53;5064881;28;19978;-61
2023/08/04 09:51:03;;;;;;;;;;;;;;;21.69;58.25;101304.56;5062742;28;19920;-60
2023/08/04 09:53:29;;;;;;;;;;;;;;;21.68;58.41;101299.34;5064399;28;19924;-60
2023/08/04 09:55:54;;;;;;;;;;;;;;;21.68;58.45;101299.34;5064807;28;20020;-58
2023/08/04 09:58:19;;;;;;;;;;;;;;;21.69;58.45;101306.44;5095285;28;19920;-60
2023/08/04 10:00:44;;;;;;;;;;;;;;;21.69;58.49;101307.28;5064456;28;19975;-61
2023/08/04 10:03:10;;;;;;;;;;;;;;;21.70;58.31;101308.09;5098272;28;20433;-61
2023/08/04 10:05:35;;;;;;;;;;;;;;;21.70;58.68;101302.69;5094872;28;20895;-60
2023/08/04 10:08:00;;;;;;;;;;;;;;;21.71;58.55;101301.69;5092776;28;19959;-61
2023/08/04 10:10:25;;;;;;;;;;;;;;;21.71;58.44;101307.09;5095451;28;19944;-58
2023/08/04 10:12:52;;;;;;;;;;;;;;;21.73;58.61;101304.22;5062521;28;19959;-61
2023/08/04 10:15:17;;;;;;;;;;;;;;;21.71;58.81;101307.94;5064056;28;20141;-60
2023/08/04 10:17:42;;;;;;;;;;;;;;;21.73;58.78;101315.88;5064384;28;20677;-61
2023/08/04 10:20:08;;;;;;;;;;;;;;;21.75;58.58;101323.81;5063160;28;19920;-60
2023/08/04 10:22:34;;;;;;;;;;;;;;;21.75;58.50;101324.69;5067033;28;19980;-61
2023/08/04 10:24:59;;;;;;;;;;;;;;;21.75;58.83;101324.69;5062447;28;19950;-61
2023/08/04 10:27:24;;;;;;;;;;;;;;;21.75;58.52;101318.41;5062877;28;19917;-60
2023/08/04 10:30:08;;;;;;;;;;;;;;;21.75;58.81;101319.28;5062197;28;19951;-60
2023/08/04 10:32:34;;;;;;;;;;;;;;;21.76;58.45;101315.53;5062374;28;19917;-61
2023/08/04 10:35:00;;;;;;;;;;;;;;;21.76;58.88;101318.25;5062976;28;19924;-61
2023/08/04 10:37:25;;;;;;;;;;;;;;;21.76;58.71;101322.81;5065097;28;19917;-61
2023/08/04 10:39:56;;;;;;;;;;;;;;;21.78;58.82;101312.63;5062931;28;19974;-61
2023/08/04 10:42:22;;;;;;;;;;;;;;;21.78;58.48;101321.59;5063054;28;19921;-61
2023/08/04 10:44:48;;;;;;;;;;;;;;;21.78;58.53;101321.59;5065830;28;19928;-60
2023/08/04 10:47:13;;;;;;;;;;;;;;;21.80;58.54;101333.09;5062789;28;19920;-61
2023/08/04 10:49:38;;;;;;;;;;;;;;;21.80;58.70;101334.97;5061306;28;19925;-60
2023/08/04 10:52:04;;;;;;;;;;;;;;;21.82;58.52;101328.34;5063478;28;19927;-60
2023/08/04 10:54:29;;;;;;;;;;;;;;;21.84;58.49;101331.72;5063702;28;19923;-60
2023/08/04 10:56:54;;;;;;;;;;;;;;;21.85;58.70;101330.69;5060974;28;20016;-60
2023/08/04 10:59:19;;;;;;;;;;;;;;;21.87;58.70;101323.22;5062303;28;19924;-60
2023/08/04 11:01:45;;;;;;;;;;;;;;;21.90;58.68;101336.41;5064815;28;19933;-55
2023/08/04 11:04:11;;;;;;;;;;;;;;;21.92;58.46;101325.44;5063304;28;19921;-60
2023/08/04 11:06:36;;;;;;;;;;;;;;;21.94;58.42;101329.63;5065165;28;19924;-60
2023/08/04 11:09:02;;;;;;;;;;;;;;;21.95;58.75;101325.06;5063869;28;19921;-60
2023/08/04 11:11:27;;;;;;;;;;;;;;;21.96;58.39;101324.91;5061090;28;19917;-59
2023/08/04 11:13:55;;;;;;;;;;;;;;;21.98;58.56;101326.56;5065495;28;19921;-60
2023/08/04 11:16:20;;;;;;;;;;;;;;;21.99;58.33;101329.09;5063382;28;19920;-60
2023/08/04 11:18:45;;;;;;;;;;;;;;;21.99;58.42;101334.50;5063350;28;19916;-60
2023/08/04 11:21:10;;;;;;;;;;;;;;;22.00;58.36;101333.47;5061018;28;20020;-60
2023/08/04 11:23:36;;;;;;;;;;;;;;;22.01;58.56;101335.19;5060313;28;19975;-59
2023/08/04 11:26:02;;;;;;;;;;;;;;;22.01;58.20;101335.19;5059813;28;19920;-61
2023/08/04 11:28:28;;;;;;;;;;;;;;;22.01;57.87;101337.91;5062447;28;19951;-60
2023/08/04 11:31:03;;;;;;;;;;;;;;;22.01;57.75;101337.06;5060857;28;19917;-58
2023/08/04 11:33:28;;;;;;;;;;;;;;;22.02;57.50;101344.16;5063362;28;19917;-57
2023/08/04 11:35:53;;;;;;;;;;;;;;;22.01;57.53;101339.75;5059239;28;20008;-61
2023/08/04 11:38:18;;;;;;;;;;;;;;;22.01;57.57;101359.56;5060696;28;20007;-60
2023/08/04 11:40:57;;;;;;;;;;;;;;;22.02;57.56;101346.84;5085100;28;19925;-60
2023/08/04 11:43:22;;;;;;;;;;;;;;;22.03;57.74;101359.38;5064174;28;19917;-61
2023/08/04 11:45:48;;;;;;;;;;;;;;;22.03;57.82;101356.66;5062467;28;19917;-60
2023/08/04 11:48:14;;;;;;;;;;;;;;;22.03;57.70;101356.66;5063120;28;19959;-61
2023/08/04 11:50:39;;;;;;;;;;;;;;;22.02;57.73;101363.94;5063969;28;20268;-60
2023/08/04 11:53:04;;;;;;;;;;;;;;;22.01;57.62;101362.25;5063762;28;20961;-59
2023/08/04 11:55:29;;;;;;;;;;;;;;;22.01;57.50;101356.84;5063769;28;19917;-60
2023/08/04 11:57:55;;;;;;;;;;;;;;;22.03;57.54;101362.06;5063704;28;20566;-58
2023/08/04 12:00:31;;;;;;;;;;;;;;;22.03;57.44;101362.06;5063668;28;19924;-60
2023/08/04 12:02:57;;;;;;;;;;;;;;;22.03;57.36;101359.38;5092920;28;19987;-60
2023/08/04 12:05:27;;;;;;;;;;;;;;;22.03;57.47;101362.06;5062873;28;19939;-60
2023/08/04 12:07:55;;;;;;;;;;;;;;;22.02;57.33;101363.94;5062372;28;19963;-61
2023/08/04 12:10:20;;;;;;;;;;;;;;;22.03;57.33;101375.59;5063542;28;19921;-61
2023/08/04 12:12:45;;;;;;;;;;;;;;;22.03;57.32;101367.50;5067236;28;19928;-60
2023/08/04 12:15:11;;;;;;;;;;;;;;;22.03;57.25;101381.88;5062931;28;19924;-61
2023/08/04 12:17:39;;;;;;;;;;;;;;;22.05;57.34;101379.84;5063143;28;19917;-60
2023/08/04 12:20:06;;;;;;;;;;;;;;;22.07;57.15;101379.66;5063233;28;19928;-60
2023/08/04 12:22:33;;;;;;;;;;;;;;;22.07;57.40;101380.50;5063185;28;20413;-61
2023/08/04 12:25:02;;;;;;;;;;;;;;;22.08;57.06;101384.88;5064090;28;20271;-60
2023/08/04 12:27:28;;;;;;;;;;;;;;;22.10;57.00;101399.09;5090632;28;19960;-62